sensor_id;sensor_type;location;lat;lon;timestamp;P1;durP1;ratioP1;P2;durP2;ratioP2
23617;SDS011;18207;32.078;34.818;2023-02-26T00:02:22;3.00;;;2.80;;
23617;SDS011;18207;32.078;34.818;2023-02-26T00:04:53;2.67;;;2.47;;
23617;SDS011;18207;32.078;34.818;2023-02-26T00:07:23;2.90;;;2.70;;
23617;SDS011;18207;32.078;34.818;2023-02-26T00:09:55;3.03;;;2.83;;
23617;SDS011;18207;32.078;34.818;2023-02-26T00:12:30;2.80;;;2.60;;
23617;SDS011;18207;32.078;34.818;2023-02-26T00:15:03;3.15;;;2.63;;
23617;SDS011;18207;32.078;34.818;2023-02-26T00:17:36;2.88;;;2.67;;
23617;SDS011;18207;32.078;34.818;2023-02-26T00:20:22;3.20;;;3.00;;
23617;SDS011;18207;32.078;34.818;2023-02-26T00:22:54;2.75;;;2.55;;
23617;SDS011;18207;32.078;34.818;2023-02-26T00:25:25;2.85;;;2.65;;
23617;SDS011;18207;32.078;34.818;2023-02-26T00:27:58;2.88;;;2.63;;
23617;SDS011;18207;32.078;34.818;2023-02-26T00:30:29;2.95;;;2.75;;
23617;SDS011;18207;32.078;34.818;2023-02-26T00:33:01;2.83;;;2.63;;
23617;SDS011;18207;32.078;34.818;2023-02-26T00:35:34;2.80;;;2.60;;
23617;SDS011;18207;32.078;34.818;2023-02-26T00:38:05;2.90;;;2.70;;
23617;SDS011;18207;32.078;34.818;2023-02-26T00:40:41;3.00;;;2.70;;
23617;SDS011;18207;32.078;34.818;2023-02-26T00:43:18;3.15;;;2.85;;
23617;SDS011;18207;32.078;34.818;2023-02-26T00:45:54;2.92;;;2.72;;
23617;SDS011;18207;32.078;34.818;2023-02-26T00:48:41;3.00;;;2.60;;
23617;SDS011;18207;32.078;34.818;2023-02-26T00:51:26;3.00;;;2.78;;
23617;SDS011;18207;32.078;34.818;2023-02-26T00:54:07;3.08;;;2.88;;
23617;SDS011;18207;32.078;34.818;2023-02-26T00:56:46;2.75;;;2.55;;
23617;SDS011;18207;32.078;34.818;2023-02-26T00:59:20;2.92;;;2.72;;
23617;SDS011;18207;32.078;34.818;2023-02-26T01:01:51;2.92;;;2.72;;
23617;SDS011;18207;32.078;34.818;2023-02-26T01:04:22;2.95;;;2.75;;
23617;SDS011;18207;32.078;34.818;2023-02-26T01:06:55;2.88;;;2.67;;
23617;SDS011;18207;32.078;34.818;2023-02-26T01:09:27;3.00;;;2.80;;
23617;SDS011;18207;32.078;34.818;2023-02-26T01:12:00;3.75;;;2.70;;
23617;SDS011;18207;32.078;34.818;2023-02-26T01:14:37;2.70;;;2.50;;
23617;SDS011;18207;32.078;34.818;2023-02-26T01:17:10;2.78;;;2.58;;
23617;SDS011;18207;32.078;34.818;2023-02-26T01:19:50;3.00;;;2.80;;
23617;SDS011;18207;32.078;34.818;2023-02-26T01:22:27;2.78;;;2.58;;
23617;SDS011;18207;32.078;34.818;2023-02-26T01:25:07;2.90;;;2.70;;
23617;SDS011;18207;32.078;34.818;2023-02-26T01:27:46;2.97;;;2.67;;
23617;SDS011;18207;32.078;34.818;2023-02-26T01:30:20;3.17;;;2.97;;
23617;SDS011;18207;32.078;34.818;2023-02-26T01:32:55;3.20;;;2.95;;
23617;SDS011;18207;32.078;34.818;2023-02-26T01:35:38;2.78;;;2.58;;
23617;SDS011;18207;32.078;34.818;2023-02-26T01:38:16;3.58;;;3.08;;
23617;SDS011;18207;32.078;34.818;2023-02-26T01:41:13;3.00;;;2.80;;
23617;SDS011;18207;32.078;34.818;2023-02-26T01:44:01;2.88;;;2.67;;
23617;SDS011;18207;32.078;34.818;2023-02-26T01:49:43;2.78;;;2.58;;
23617;SDS011;18207;32.078;34.818;2023-02-26T01:55:42;2.83;;;2.63;;
23617;SDS011;18207;32.078;34.818;2023-02-26T01:58:17;2.70;;;2.55;;
23617;SDS011;18207;32.078;34.818;2023-02-26T02:00:50;2.80;;;2.60;;
23617;SDS011;18207;32.078;34.818;2023-02-26T02:03:22;3.20;;;3.00;;
23617;SDS011;18207;32.078;34.818;2023-02-26T02:05:57;2.88;;;2.67;;
23617;SDS011;18207;32.078;34.818;2023-02-26T02:08:34;3.20;;;3.00;;
23617;SDS011;18207;32.078;34.818;2023-02-26T02:11:05;3.13;;;2.92;;
23617;SDS011;18207;32.078;34.818;2023-02-26T02:13:47;2.92;;;2.72;;
23617;SDS011;18207;32.078;34.818;2023-02-26T02:16:36;2.83;;;2.63;;
23617;SDS011;18207;32.078;34.818;2023-02-26T02:19:29;3.15;;;2.90;;
23617;SDS011;18207;32.078;34.818;2023-02-26T02:22:32;2.70;;;2.50;;
23617;SDS011;18207;32.078;34.818;2023-02-26T02:25:34;2.78;;;2.58;;
23617;SDS011;18207;32.078;34.818;2023-02-26T02:28:30;2.88;;;2.67;;
23617;SDS011;18207;32.078;34.818;2023-02-26T02:31:19;3.05;;;2.85;;
23617;SDS011;18207;32.078;34.818;2023-02-26T02:33:55;3.17;;;2.97;;
23617;SDS011;18207;32.078;34.818;2023-02-26T02:36:33;3.22;;;2.92;;
23617;SDS011;18207;32.078;34.818;2023-02-26T02:39:10;3.33;;;3.03;;
23617;SDS011;18207;32.078;34.818;2023-02-26T02:41:48;2.97;;;2.78;;
23617;SDS011;18207;32.078;34.818;2023-02-26T02:44:25;4.03;;;3.33;;
23617;SDS011;18207;32.078;34.818;2023-02-26T02:47:02;3.40;;;3.10;;
23617;SDS011;18207;32.078;34.818;2023-02-26T02:49:38;3.33;;;3.13;;
23617;SDS011;18207;32.078;34.818;2023-02-26T02:52:18;3.33;;;3.13;;
23617;SDS011;18207;32.078;34.818;2023-02-26T02:54:58;3.50;;;3.20;;
23617;SDS011;18207;32.078;34.818;2023-02-26T02:57:36;3.35;;;3.15;;
23617;SDS011;18207;32.078;34.818;2023-02-26T03:00:14;3.22;;;3.03;;
23617;SDS011;18207;32.078;34.818;2023-02-26T03:02:52;3.55;;;3.30;;
23617;SDS011;18207;32.078;34.818;2023-02-26T03:05:28;3.47;;;3.25;;
23617;SDS011;18207;32.078;34.818;2023-02-26T03:08:00;3.67;;;3.38;;
23617;SDS011;18207;32.078;34.818;2023-02-26T03:10:38;3.60;;;3.30;;
23617;SDS011;18207;32.078;34.818;2023-02-26T03:13:13;3.38;;;3.17;;
23617;SDS011;18207;32.078;34.818;2023-02-26T03:15:51;3.60;;;3.30;;
23617;SDS011;18207;32.078;34.818;2023-02-26T03:18:44;3.80;;;3.50;;
23617;SDS011;18207;32.078;34.818;2023-02-26T03:21:26;3.65;;;3.35;;
23617;SDS011;18207;32.078;34.818;2023-02-26T03:24:18;3.47;;;3.20;;
23617;SDS011;18207;32.078;34.818;2023-02-26T03:26:57;3.40;;;3.17;;
23617;SDS011;18207;32.078;34.818;2023-02-26T03:29:37;3.53;;;3.30;;
23617;SDS011;18207;32.078;34.818;2023-02-26T03:32:16;4.00;;;3.70;;
23617;SDS011;18207;32.078;34.818;2023-02-26T03:34:55;3.72;;;3.42;;
23617;SDS011;18207;32.078;34.818;2023-02-26T03:37:34;3.58;;;3.35;;
23617;SDS011;18207;32.078;34.818;2023-02-26T03:40:10;3.70;;;3.45;;
23617;SDS011;18207;32.078;34.818;2023-02-26T03:42:47;3.78;;;3.47;;
23617;SDS011;18207;32.078;34.818;2023-02-26T03:45:24;3.90;;;3.60;;
23617;SDS011;18207;32.078;34.818;2023-02-26T03:47:59;3.85;;;3.55;;
23617;SDS011;18207;32.078;34.818;2023-02-26T03:50:37;3.67;;;3.38;;
23617;SDS011;18207;32.078;34.818;2023-02-26T03:53:14;3.72;;;3.42;;
23617;SDS011;18207;32.078;34.818;2023-02-26T03:55:52;3.72;;;3.42;;
23617;SDS011;18207;32.078;34.818;2023-02-26T03:58:30;4.07;;;3.78;;
23617;SDS011;18207;32.078;34.818;2023-02-26T04:01:02;3.90;;;3.60;;
23617;SDS011;18207;32.078;34.818;2023-02-26T04:03:39;3.85;;;3.55;;
23617;SDS011;18207;32.078;34.818;2023-02-26T04:06:18;4.10;;;3.70;;
23617;SDS011;18207;32.078;34.818;2023-02-26T04:08:51;3.92;;;3.63;;
23617;SDS011;18207;32.078;34.818;2023-02-26T04:11:22;3.92;;;3.63;;
23617;SDS011;18207;32.078;34.818;2023-02-26T04:13:54;3.80;;;3.50;;
23617;SDS011;18207;32.078;34.818;2023-02-26T04:16:26;4.28;;;3.97;;
23617;SDS011;18207;32.078;34.818;2023-02-26T04:18:57;3.65;;;3.35;;
23617;SDS011;18207;32.078;34.818;2023-02-26T04:21:30;4.00;;;3.70;;
23617;SDS011;18207;32.078;34.818;2023-02-26T04:24:01;4.57;;;4.18;;
23617;SDS011;18207;32.078;34.818;2023-02-26T04:26:31;3.95;;;3.65;;
23617;SDS011;18207;32.078;34.818;2023-02-26T04:29:02;3.95;;;3.65;;
23617;SDS011;18207;32.078;34.818;2023-02-26T04:31:33;3.85;;;3.55;;
23617;SDS011;18207;32.078;34.818;2023-02-26T04:34:04;3.88;;;3.58;;
23617;SDS011;18207;32.078;34.818;2023-02-26T04:36:37;3.95;;;3.65;;
23617;SDS011;18207;32.078;34.818;2023-02-26T04:39:07;3.88;;;3.58;;
23617;SDS011;18207;32.078;34.818;2023-02-26T04:41:38;3.75;;;3.45;;
23617;SDS011;18207;32.078;34.818;2023-02-26T04:44:09;3.97;;;3.67;;
23617;SDS011;18207;32.078;34.818;2023-02-26T04:46:40;4.07;;;3.78;;
23617;SDS011;18207;32.078;34.818;2023-02-26T04:49:10;4.40;;;4.10;;
23617;SDS011;18207;32.078;34.818;2023-02-26T04:51:44;4.13;;;3.83;;
23617;SDS011;18207;32.078;34.818;2023-02-26T04:54:14;4.32;;;4.03;;
23617;SDS011;18207;32.078;34.818;2023-02-26T04:56:45;4.63;;;4.32;;
23617;SDS011;18207;32.078;34.818;2023-02-26T04:59:16;4.47;;;4.07;;
23617;SDS011;18207;32.078;34.818;2023-02-26T05:01:46;4.32;;;4.03;;
23617;SDS011;18207;32.078;34.818;2023-02-26T05:04:17;4.25;;;3.95;;
23617;SDS011;18207;32.078;34.818;2023-02-26T05:06:50;3.92;;;3.63;;
23617;SDS011;18207;32.078;34.818;2023-02-26T05:09:21;4.40;;;4.00;;
23617;SDS011;18207;32.078;34.818;2023-02-26T05:11:52;4.82;;;4.10;;
23617;SDS011;18207;32.078;34.818;2023-02-26T05:14:22;4.22;;;3.92;;
23617;SDS011;18207;32.078;34.818;2023-02-26T05:16:53;4.38;;;3.97;;
23617;SDS011;18207;32.078;34.818;2023-02-26T05:19:24;4.40;;;4.10;;
23617;SDS011;18207;32.078;34.818;2023-02-26T05:21:57;4.78;;;4.40;;
23617;SDS011;18207;32.078;34.818;2023-02-26T05:24:28;4.70;;;4.30;;
23617;SDS011;18207;32.078;34.818;2023-02-26T05:26:59;5.32;;;4.10;;
23617;SDS011;18207;32.078;34.818;2023-02-26T05:29:30;4.80;;;4.40;;
23617;SDS011;18207;32.078;34.818;2023-02-26T05:32:00;4.68;;;4.28;;
23617;SDS011;18207;32.078;34.818;2023-02-26T05:34:32;4.43;;;4.03;;
23617;SDS011;18207;32.078;34.818;2023-02-26T05:37:04;4.60;;;4.30;;
23617;SDS011;18207;32.078;34.818;2023-02-26T05:39:34;4.93;;;4.28;;
23617;SDS011;18207;32.078;34.818;2023-02-26T05:42:07;4.13;;;3.72;;
23617;SDS011;18207;32.078;34.818;2023-02-26T05:44:38;3.90;;;3.60;;
23617;SDS011;18207;32.078;34.818;2023-02-26T05:47:09;4.53;;;4.13;;
23617;SDS011;18207;32.078;34.818;2023-02-26T05:49:40;4.78;;;4.38;;
23617;SDS011;18207;32.078;34.818;2023-02-26T05:52:13;4.45;;;4.00;;
23617;SDS011;18207;32.078;34.818;2023-02-26T05:54:44;4.13;;;3.83;;
23617;SDS011;18207;32.078;34.818;2023-02-26T05:57:14;4.25;;;3.85;;
23617;SDS011;18207;32.078;34.818;2023-02-26T05:59:45;4.43;;;4.13;;
23617;SDS011;18207;32.078;34.818;2023-02-26T06:02:16;3.85;;;3.65;;
23617;SDS011;18207;32.078;34.818;2023-02-26T06:04:47;3.92;;;3.63;;
23617;SDS011;18207;32.078;34.818;2023-02-26T06:07:20;4.20;;;3.90;;
23617;SDS011;18207;32.078;34.818;2023-02-26T06:09:51;4.20;;;3.90;;
23617;SDS011;18207;32.078;34.818;2023-02-26T06:12:21;4.18;;;3.88;;
23617;SDS011;18207;32.078;34.818;2023-02-26T06:14:51;4.60;;;4.20;;
23617;SDS011;18207;32.078;34.818;2023-02-26T06:17:23;4.32;;;4.03;;
23617;SDS011;18207;32.078;34.818;2023-02-26T06:19:54;4.53;;;4.22;;
23617;SDS011;18207;32.078;34.818;2023-02-26T06:22:27;4.47;;;4.18;;
23617;SDS011;18207;32.078;34.818;2023-02-26T06:24:58;4.25;;;3.85;;
23617;SDS011;18207;32.078;34.818;2023-02-26T06:27:29;4.40;;;4.10;;
23617;SDS011;18207;32.078;34.818;2023-02-26T06:30:01;4.00;;;3.70;;
23617;SDS011;18207;32.078;34.818;2023-02-26T06:32:32;4.03;;;3.72;;
23617;SDS011;18207;32.078;34.818;2023-02-26T06:35:02;4.03;;;3.72;;
23617;SDS011;18207;32.078;34.818;2023-02-26T06:37:36;4.45;;;4.10;;
23617;SDS011;18207;32.078;34.818;2023-02-26T06:40:08;4.65;;;4.28;;
23617;SDS011;18207;32.078;34.818;2023-02-26T06:42:40;4.50;;;4.18;;
23617;SDS011;18207;32.078;34.818;2023-02-26T06:45:10;4.57;;;4.18;;
23617;SDS011;18207;32.078;34.818;2023-02-26T06:47:41;4.20;;;3.90;;
23617;SDS011;18207;32.078;34.818;2023-02-26T06:50:11;4.38;;;4.07;;
23617;SDS011;18207;32.078;34.818;2023-02-26T06:52:46;4.38;;;4.07;;
23617;SDS011;18207;32.078;34.818;2023-02-26T06:55:17;4.45;;;4.15;;
23617;SDS011;18207;32.078;34.818;2023-02-26T06:57:52;4.80;;;4.40;;
23617;SDS011;18207;32.078;34.818;2023-02-26T07:00:24;4.30;;;4.00;;
23617;SDS011;18207;32.078;34.818;2023-02-26T07:02:56;4.35;;;4.05;;
23617;SDS011;18207;32.078;34.818;2023-02-26T07:05:26;5.03;;;4.63;;
23617;SDS011;18207;32.078;34.818;2023-02-26T07:07:59;4.65;;;4.28;;
23617;SDS011;18207;32.078;34.818;2023-02-26T07:10:31;4.47;;;4.13;;
23617;SDS011;18207;32.078;34.818;2023-02-26T07:13:02;4.28;;;3.97;;
23617;SDS011;18207;32.078;34.818;2023-02-26T07:15:34;4.40;;;4.10;;
23617;SDS011;18207;32.078;34.818;2023-02-26T07:18:04;4.30;;;4.00;;
23617;SDS011;18207;32.078;34.818;2023-02-26T07:20:36;4.40;;;4.10;;
23617;SDS011;18207;32.078;34.818;2023-02-26T07:23:08;4.47;;;4.18;;
23617;SDS011;18207;32.078;34.818;2023-02-26T07:25:38;4.40;;;4.10;;
23617;SDS011;18207;32.078;34.818;2023-02-26T07:28:08;4.15;;;3.85;;
23617;SDS011;18207;32.078;34.818;2023-02-26T07:30:40;4.47;;;4.18;;
23617;SDS011;18207;32.078;34.818;2023-02-26T07:33:10;4.32;;;4.03;;
23617;SDS011;18207;32.078;34.818;2023-02-26T07:35:41;4.57;;;4.28;;
23617;SDS011;18207;32.078;34.818;2023-02-26T07:38:14;4.30;;;4.00;;
23617;SDS011;18207;32.078;34.818;2023-02-26T07:40:45;4.20;;;3.90;;
23617;SDS011;18207;32.078;34.818;2023-02-26T07:43:15;3.90;;;3.67;;
23617;SDS011;18207;32.078;34.818;2023-02-26T07:45:48;3.95;;;3.65;;
23617;SDS011;18207;32.078;34.818;2023-02-26T07:48:19;3.63;;;3.40;;
23617;SDS011;18207;32.078;34.818;2023-02-26T07:50:50;3.55;;;3.25;;
23617;SDS011;18207;32.078;34.818;2023-02-26T07:53:24;3.83;;;3.63;;
23617;SDS011;18207;32.078;34.818;2023-02-26T07:55:54;3.50;;;3.30;;
23617;SDS011;18207;32.078;34.818;2023-02-26T07:58:24;3.47;;;3.28;;
23617;SDS011;18207;32.078;34.818;2023-02-26T08:00:55;3.55;;;3.35;;
23617;SDS011;18207;32.078;34.818;2023-02-26T08:03:27;4.07;;;3.78;;
23617;SDS011;18207;32.078;34.818;2023-02-26T08:05:58;3.67;;;3.38;;
23617;SDS011;18207;32.078;34.818;2023-02-26T08:08:31;4.28;;;3.97;;
23617;SDS011;18207;32.078;34.818;2023-02-26T08:11:02;4.07;;;3.78;;
23617;SDS011;18207;32.078;34.818;2023-02-26T08:13:32;3.78;;;3.58;;
23617;SDS011;18207;32.078;34.818;2023-02-26T08:16:03;4.70;;;4.40;;
23617;SDS011;18207;32.078;34.818;2023-02-26T08:18:34;4.00;;;3.78;;
23617;SDS011;18207;32.078;34.818;2023-02-26T08:21:06;4.55;;;4.25;;
23617;SDS011;18207;32.078;34.818;2023-02-26T08:23:39;4.55;;;4.25;;
23617;SDS011;18207;32.078;34.818;2023-02-26T08:26:10;4.97;;;4.57;;
23617;SDS011;18207;32.078;34.818;2023-02-26T08:28:42;4.75;;;4.45;;
23617;SDS011;18207;32.078;34.818;2023-02-26T08:31:14;4.57;;;4.28;;
23617;SDS011;18207;32.078;34.818;2023-02-26T08:33:45;5.03;;;4.68;;
23617;SDS011;18207;32.078;34.818;2023-02-26T08:36:15;5.03;;;4.63;;
23617;SDS011;18207;32.078;34.818;2023-02-26T08:38:49;4.65;;;4.35;;
23617;SDS011;18207;32.078;34.818;2023-02-26T08:41:20;4.57;;;4.28;;
23617;SDS011;18207;32.078;34.818;2023-02-26T08:43:51;4.38;;;4.07;;
23617;SDS011;18207;32.078;34.818;2023-02-26T08:46:22;4.20;;;3.90;;
23617;SDS011;18207;32.078;34.818;2023-02-26T08:48:54;4.28;;;3.97;;
23617;SDS011;18207;32.078;34.818;2023-02-26T08:51:25;4.07;;;3.78;;
23617;SDS011;18207;32.078;34.818;2023-02-26T08:53:59;4.10;;;3.80;;
23617;SDS011;18207;32.078;34.818;2023-02-26T08:56:29;4.63;;;4.32;;
23617;SDS011;18207;32.078;34.818;2023-02-26T08:59:00;4.38;;;4.07;;
23617;SDS011;18207;32.078;34.818;2023-02-26T09:01:30;4.55;;;4.15;;
23617;SDS011;18207;32.078;34.818;2023-02-26T09:04:00;4.38;;;4.07;;
23617;SDS011;18207;32.078;34.818;2023-02-26T09:06:31;4.50;;;4.20;;
23617;SDS011;18207;32.078;34.818;2023-02-26T09:09:04;4.90;;;4.50;;
23617;SDS011;18207;32.078;34.818;2023-02-26T09:11:41;4.40;;;4.10;;
23617;SDS011;18207;32.078;34.818;2023-02-26T09:14:11;4.50;;;4.20;;
23617;SDS011;18207;32.078;34.818;2023-02-26T09:16:42;4.65;;;4.35;;
23617;SDS011;18207;32.078;34.818;2023-02-26T09:19:16;4.35;;;4.05;;
23617;SDS011;18207;32.078;34.818;2023-02-26T09:21:48;4.32;;;4.03;;
23617;SDS011;18207;32.078;34.818;2023-02-26T09:24:20;4.30;;;4.00;;
23617;SDS011;18207;32.078;34.818;2023-02-26T09:26:51;4.47;;;4.18;;
23617;SDS011;18207;32.078;34.818;2023-02-26T09:29:22;4.47;;;4.15;;
23617;SDS011;18207;32.078;34.818;2023-02-26T09:31:53;4.68;;;4.38;;
23617;SDS011;18207;32.078;34.818;2023-02-26T09:34:24;4.50;;;4.20;;
23617;SDS011;18207;32.078;34.818;2023-02-26T09:36:54;4.43;;;4.13;;
23617;SDS011;18207;32.078;34.818;2023-02-26T09:39:27;4.57;;;4.28;;
23617;SDS011;18207;32.078;34.818;2023-02-26T09:41:59;4.35;;;4.05;;
23617;SDS011;18207;32.078;34.818;2023-02-26T09:44:38;4.40;;;4.10;;
23617;SDS011;18207;32.078;34.818;2023-02-26T09:47:12;4.50;;;4.20;;
23617;SDS011;18207;32.078;34.818;2023-02-26T09:49:50;4.68;;;4.32;;
23617;SDS011;18207;32.078;34.818;2023-02-26T09:52:28;4.15;;;3.85;;
23617;SDS011;18207;32.078;34.818;2023-02-26T09:55:09;4.18;;;3.88;;
23617;SDS011;18207;32.078;34.818;2023-02-26T09:57:47;4.18;;;3.95;;
23617;SDS011;18207;32.078;34.818;2023-02-26T10:00:27;4.68;;;4.13;;
23617;SDS011;18207;32.078;34.818;2023-02-26T10:03:11;4.22;;;3.92;;
23617;SDS011;18207;32.078;34.818;2023-02-26T10:06:01;4.40;;;4.10;;
23617;SDS011;18207;32.078;34.818;2023-02-26T10:11:50;4.47;;;4.18;;
23617;SDS011;18207;32.078;34.818;2023-02-26T10:14:31;4.57;;;4.28;;
23617;SDS011;18207;32.078;34.818;2023-02-26T10:17:14;4.35;;;4.03;;
23617;SDS011;18207;32.078;34.818;2023-02-26T10:19:54;4.47;;;4.18;;
23617;SDS011;18207;32.078;34.818;2023-02-26T10:22:31;4.35;;;4.05;;
23617;SDS011;18207;32.078;34.818;2023-02-26T10:25:24;4.43;;;4.13;;
23617;SDS011;18207;32.078;34.818;2023-02-26T10:28:10;4.13;;;3.83;;
23617;SDS011;18207;32.078;34.818;2023-02-26T10:31:17;4.18;;;3.88;;
23617;SDS011;18207;32.078;34.818;2023-02-26T10:34:02;4.28;;;3.97;;
23617;SDS011;18207;32.078;34.818;2023-02-26T10:36:47;4.30;;;4.00;;
23617;SDS011;18207;32.078;34.818;2023-02-26T10:39:30;4.30;;;4.05;;
23617;SDS011;18207;32.078;34.818;2023-02-26T10:42:09;4.00;;;3.75;;
23617;SDS011;18207;32.078;34.818;2023-02-26T10:44:49;3.92;;;3.63;;
23617;SDS011;18207;32.078;34.818;2023-02-26T10:47:41;4.13;;;3.83;;
23617;SDS011;18207;32.078;34.818;2023-02-26T10:50:27;3.78;;;3.58;;
23617;SDS011;18207;32.078;34.818;2023-02-26T10:53:00;3.85;;;3.65;;
23617;SDS011;18207;32.078;34.818;2023-02-26T10:55:34;4.35;;;3.95;;
23617;SDS011;18207;32.078;34.818;2023-02-26T10:58:13;4.18;;;3.88;;
23617;SDS011;18207;32.078;34.818;2023-02-26T11:00:49;4.25;;;3.97;;
23617;SDS011;18207;32.078;34.818;2023-02-26T11:03:24;4.28;;;3.97;;
23617;SDS011;18207;32.078;34.818;2023-02-26T11:06:02;4.50;;;4.20;;
23617;SDS011;18207;32.078;34.818;2023-02-26T11:08:37;3.83;;;3.63;;
23617;SDS011;18207;32.078;34.818;2023-02-26T11:11:11;3.83;;;3.53;;
23617;SDS011;18207;32.078;34.818;2023-02-26T11:14:10;3.97;;;3.78;;
23617;SDS011;18207;32.078;34.818;2023-02-26T11:16:44;4.00;;;3.80;;
23617;SDS011;18207;32.078;34.818;2023-02-26T11:19:19;3.90;;;3.70;;
23617;SDS011;18207;32.078;34.818;2023-02-26T11:22:02;3.70;;;3.50;;
23617;SDS011;18207;32.078;34.818;2023-02-26T11:24:36;3.78;;;3.55;;
23617;SDS011;18207;32.078;34.818;2023-02-26T11:27:12;4.20;;;3.90;;
23617;SDS011;18207;32.078;34.818;2023-02-26T11:29:48;4.00;;;3.72;;
23617;SDS011;18207;32.078;34.818;2023-02-26T11:32:30;4.13;;;3.83;;
23617;SDS011;18207;32.078;34.818;2023-02-26T11:35:05;4.63;;;4.32;;
23617;SDS011;18207;32.078;34.818;2023-02-26T11:37:38;3.78;;;3.58;;
23617;SDS011;18207;32.078;34.818;2023-02-26T11:40:17;4.10;;;3.85;;
23617;SDS011;18207;32.078;34.818;2023-02-26T11:42:59;4.03;;;3.72;;
23617;SDS011;18207;32.078;34.818;2023-02-26T11:45:35;4.03;;;3.72;;
23617;SDS011;18207;32.078;34.818;2023-02-26T11:48:15;3.63;;;3.42;;
23617;SDS011;18207;32.078;34.818;2023-02-26T11:50:53;3.92;;;3.63;;
23617;SDS011;18207;32.078;34.818;2023-02-26T11:53:30;3.63;;;3.33;;
23617;SDS011;18207;32.078;34.818;2023-02-26T11:56:08;3.83;;;3.55;;
23617;SDS011;18207;32.078;34.818;2023-02-26T11:58:42;3.70;;;3.50;;
23617;SDS011;18207;32.078;34.818;2023-02-26T12:01:15;3.35;;;3.15;;
23617;SDS011;18207;32.078;34.818;2023-02-26T12:03:51;3.70;;;3.50;;
23617;SDS011;18207;32.078;34.818;2023-02-26T12:06:25;3.75;;;3.47;;
23617;SDS011;18207;32.078;34.818;2023-02-26T12:08:56;3.30;;;3.10;;
23617;SDS011;18207;32.078;34.818;2023-02-26T12:11:34;3.58;;;3.38;;
23617;SDS011;18207;32.078;34.818;2023-02-26T12:14:45;3.50;;;3.30;;
23617;SDS011;18207;32.078;34.818;2023-02-26T12:17:42;3.83;;;3.53;;
23617;SDS011;18207;32.078;34.818;2023-02-26T12:20:45;3.58;;;3.38;;
23617;SDS011;18207;32.078;34.818;2023-02-26T12:23:30;4.03;;;3.83;;
23617;SDS011;18207;32.078;34.818;2023-02-26T12:26:24;4.03;;;3.72;;
23617;SDS011;18207;32.078;34.818;2023-02-26T12:29:04;4.15;;;3.85;;
23617;SDS011;18207;32.078;34.818;2023-02-26T12:32:23;3.78;;;3.58;;
23617;SDS011;18207;32.078;34.818;2023-02-26T12:35:34;3.92;;;3.63;;
23617;SDS011;18207;32.078;34.818;2023-02-26T12:38:20;4.22;;;3.97;;
23617;SDS011;18207;32.078;34.818;2023-02-26T12:41:12;4.32;;;4.03;;
23617;SDS011;18207;32.078;34.818;2023-02-26T12:44:13;4.40;;;4.00;;
23617;SDS011;18207;32.078;34.818;2023-02-26T12:47:29;3.85;;;3.58;;
23617;SDS011;18207;32.078;34.818;2023-02-26T12:50:16;4.03;;;3.72;;
23617;SDS011;18207;32.078;34.818;2023-02-26T12:56:42;3.53;;;3.33;;
23617;SDS011;18207;32.078;34.818;2023-02-26T12:59:50;3.70;;;3.50;;
23617;SDS011;18207;32.078;34.818;2023-02-26T13:06:51;3.22;;;3.03;;
23617;SDS011;18207;32.078;34.818;2023-02-26T13:09:43;3.30;;;3.10;;
23617;SDS011;18207;32.078;34.818;2023-02-26T13:12:32;3.42;;;3.13;;
23617;SDS011;18207;32.078;34.818;2023-02-26T13:18:37;3.25;;;3.05;;
23617;SDS011;18207;32.078;34.818;2023-02-26T13:21:17;3.38;;;3.17;;
23617;SDS011;18207;32.078;34.818;2023-02-26T13:23:54;3.13;;;2.92;;
23617;SDS011;18207;32.078;34.818;2023-02-26T13:26:34;3.22;;;3.03;;
23617;SDS011;18207;32.078;34.818;2023-02-26T13:29:08;3.47;;;3.28;;
23617;SDS011;18207;32.078;34.818;2023-02-26T13:31:44;3.38;;;3.17;;
23617;SDS011;18207;32.078;34.818;2023-02-26T13:34:25;3.50;;;3.20;;
23617;SDS011;18207;32.078;34.818;2023-02-26T13:37:19;3.60;;;3.40;;
23617;SDS011;18207;32.078;34.818;2023-02-26T13:40:03;3.40;;;3.20;;
23617;SDS011;18207;32.078;34.818;2023-02-26T13:43:02;3.17;;;2.97;;
23617;SDS011;18207;32.078;34.818;2023-02-26T13:45:51;3.13;;;2.92;;
23617;SDS011;18207;32.078;34.818;2023-02-26T13:48:39;2.92;;;2.72;;
23617;SDS011;18207;32.078;34.818;2023-02-26T13:51:24;2.67;;;2.58;;
23617;SDS011;18207;32.078;34.818;2023-02-26T13:54:06;2.78;;;2.67;;
23617;SDS011;18207;32.078;34.818;2023-02-26T13:57:05;2.60;;;2.40;;
23617;SDS011;18207;32.078;34.818;2023-02-26T13:59:51;2.60;;;2.40;;
23617;SDS011;18207;32.078;34.818;2023-02-26T14:02:42;2.97;;;2.78;;
23617;SDS011;18207;32.078;34.818;2023-02-26T14:05:29;2.28;;;2.17;;
23617;SDS011;18207;32.078;34.818;2023-02-26T14:08:37;2.55;;;2.35;;
23617;SDS011;18207;32.078;34.818;2023-02-26T14:11:25;2.85;;;2.65;;
23617;SDS011;18207;32.078;34.818;2023-02-26T14:14:33;2.40;;;2.25;;
23617;SDS011;18207;32.078;34.818;2023-02-26T14:17:27;2.33;;;2.22;;
23617;SDS011;18207;32.078;34.818;2023-02-26T14:20:14;2.78;;;2.58;;
23617;SDS011;18207;32.078;34.818;2023-02-26T14:26:03;2.45;;;2.35;;
23617;SDS011;18207;32.078;34.818;2023-02-26T14:28:53;2.35;;;2.25;;
23617;SDS011;18207;32.078;34.818;2023-02-26T14:31:46;2.50;;;2.40;;
23617;SDS011;18207;32.078;34.818;2023-02-26T14:34:34;2.45;;;2.35;;
23617;SDS011;18207;32.078;34.818;2023-02-26T14:37:19;2.50;;;2.40;;
23617;SDS011;18207;32.078;34.818;2023-02-26T14:39:56;2.38;;;2.28;;
23617;SDS011;18207;32.078;34.818;2023-02-26T14:42:35;2.35;;;2.25;;
23617;SDS011;18207;32.078;34.818;2023-02-26T14:45:26;2.45;;;2.33;;
23617;SDS011;18207;32.078;34.818;2023-02-26T14:48:01;2.67;;;2.47;;
23617;SDS011;18207;32.078;34.818;2023-02-26T14:50:40;2.55;;;2.35;;
23617;SDS011;18207;32.078;34.818;2023-02-26T14:56:57;2.50;;;2.30;;
23617;SDS011;18207;32.078;34.818;2023-02-26T14:59:42;2.83;;;2.63;;
23617;SDS011;18207;32.078;34.818;2023-02-26T15:02:44;2.40;;;2.30;;
23617;SDS011;18207;32.078;34.818;2023-02-26T15:05:43;2.65;;;2.53;;
23617;SDS011;18207;32.078;34.818;2023-02-26T15:08:36;2.72;;;2.53;;
23617;SDS011;18207;32.078;34.818;2023-02-26T15:11:30;2.40;;;2.30;;
23617;SDS011;18207;32.078;34.818;2023-02-26T15:14:27;2.53;;;2.33;;
23617;SDS011;18207;32.078;34.818;2023-02-26T15:17:32;2.40;;;2.25;;
23617;SDS011;18207;32.078;34.818;2023-02-26T15:20:20;2.45;;;2.30;;
23617;SDS011;18207;32.078;34.818;2023-02-26T15:23:10;2.50;;;2.33;;
23617;SDS011;18207;32.078;34.818;2023-02-26T15:25:55;2.63;;;2.42;;
23617;SDS011;18207;32.078;34.818;2023-02-26T15:28:26;2.63;;;2.42;;
23617;SDS011;18207;32.078;34.818;2023-02-26T15:31:01;2.70;;;2.50;;
23617;SDS011;18207;32.078;34.818;2023-02-26T15:33:34;2.58;;;2.47;;
23617;SDS011;18207;32.078;34.818;2023-02-26T15:36:07;2.58;;;2.47;;
23617;SDS011;18207;32.078;34.818;2023-02-26T15:38:45;2.42;;;2.33;;
23617;SDS011;18207;32.078;34.818;2023-02-26T15:41:17;2.42;;;2.33;;
23617;SDS011;18207;32.078;34.818;2023-02-26T15:43:50;2.60;;;2.50;;
23617;SDS011;18207;32.078;34.818;2023-02-26T15:46:25;2.75;;;2.55;;
23617;SDS011;18207;32.078;34.818;2023-02-26T15:49:05;2.63;;;2.42;;
23617;SDS011;18207;32.078;34.818;2023-02-26T15:51:41;2.50;;;2.40;;
23617;SDS011;18207;32.078;34.818;2023-02-26T15:54:16;2.42;;;2.33;;
23617;SDS011;18207;32.078;34.818;2023-02-26T15:56:52;2.50;;;2.40;;
23617;SDS011;18207;32.078;34.818;2023-02-26T15:59:24;2.72;;;2.53;;
23617;SDS011;18207;32.078;34.818;2023-02-26T16:02:00;3.60;;;3.00;;
23617;SDS011;18207;32.078;34.818;2023-02-26T16:04:33;3.00;;;2.80;;